Terminal Aerodrome Forecast
Issued by NWS

Current Version | Previous Version | Graphics & Text | Print | Product List | Glossary On
Versions: 1 2 3 4 5 6 7 8 9 10 11 12 13 14 15 16 17 18 19 20 21 22 23 24 25 26 27 28 29 30 31
000
FTUS41 KILN 271100
TAFLUK
TAF
KLUK 271130Z 2712/2812 21007KT P6SM VCSH SCT014 BKN025 OVC050
     FM271500 28012G20KT P6SM OVC025
     FM271700 31012G20KT P6SM BKN040
     FM272300 30012G20KT P6SM SCT050
     FM280500 29010KT P6SM SKC=

USA.gov is the U.S. government's official web portal to all federal, state and local government web resources and services.